sensor_id;sensor_type;location;lat;lon;timestamp;P1;durP1;ratioP1;P2;durP2;ratioP2
357;SDS011;167;47.558;7.602;2024-03-07T00:01:28;4.60;;;4.20;;
357;SDS011;167;47.558;7.602;2024-03-07T00:03:54;4.30;;;4.00;;
357;SDS011;167;47.558;7.602;2024-03-07T00:06:20;4.90;;;4.50;;
357;SDS011;167;47.558;7.602;2024-03-07T00:08:46;3.90;;;3.47;;
357;SDS011;167;47.558;7.602;2024-03-07T00:11:13;4.00;;;3.70;;
357;SDS011;167;47.558;7.602;2024-03-07T00:13:39;5.33;;;4.83;;
357;SDS011;167;47.558;7.602;2024-03-07T00:16:05;4.40;;;4.00;;
357;SDS011;167;47.558;7.602;2024-03-07T00:18:31;4.27;;;4.07;;
357;SDS011;167;47.558;7.602;2024-03-07T00:20:57;4.50;;;4.10;;
357;SDS011;167;47.558;7.602;2024-03-07T00:23:23;4.03;;;3.73;;
357;SDS011;167;47.558;7.602;2024-03-07T00:25:49;4.53;;;4.20;;
357;SDS011;167;47.558;7.602;2024-03-07T00:28:15;4.90;;;4.47;;
357;SDS011;167;47.558;7.602;2024-03-07T00:30:45;5.00;;;4.70;;
357;SDS011;167;47.558;7.602;2024-03-07T00:33:11;5.17;;;4.67;;
357;SDS011;167;47.558;7.602;2024-03-07T00:35:37;6.17;;;5.73;;
357;SDS011;167;47.558;7.602;2024-03-07T00:38:03;5.10;;;4.70;;
357;SDS011;167;47.558;7.602;2024-03-07T00:40:29;5.10;;;4.80;;
357;SDS011;167;47.558;7.602;2024-03-07T00:42:55;4.57;;;4.27;;
357;SDS011;167;47.558;7.602;2024-03-07T00:45:23;5.40;;;5.00;;
357;SDS011;167;47.558;7.602;2024-03-07T00:47:49;5.23;;;4.93;;
357;SDS011;167;47.558;7.602;2024-03-07T00:50:15;4.80;;;4.50;;
357;SDS011;167;47.558;7.602;2024-03-07T00:52:40;5.67;;;5.27;;
357;SDS011;167;47.558;7.602;2024-03-07T00:55:07;5.80;;;5.37;;
357;SDS011;167;47.558;7.602;2024-03-07T00:57:36;5.60;;;5.10;;
357;SDS011;167;47.558;7.602;2024-03-07T01:00:02;5.10;;;4.70;;
357;SDS011;167;47.558;7.602;2024-03-07T01:02:29;5.40;;;4.97;;
357;SDS011;167;47.558;7.602;2024-03-07T01:04:55;5.53;;;5.10;;
357;SDS011;167;47.558;7.602;2024-03-07T01:07:21;5.53;;;5.10;;
357;SDS011;167;47.558;7.602;2024-03-07T01:09:48;4.37;;;4.07;;
357;SDS011;167;47.558;7.602;2024-03-07T01:12:15;4.73;;;4.43;;
357;SDS011;167;47.558;7.602;2024-03-07T01:14:42;5.03;;;4.73;;
357;SDS011;167;47.558;7.602;2024-03-07T01:17:07;4.70;;;4.40;;
357;SDS011;167;47.558;7.602;2024-03-07T01:19:33;5.40;;;4.90;;
357;SDS011;167;47.558;7.602;2024-03-07T01:22:00;4.00;;;3.80;;
357;SDS011;167;47.558;7.602;2024-03-07T01:24:25;5.27;;;4.77;;
357;SDS011;167;47.558;7.602;2024-03-07T01:26:51;4.83;;;4.53;;
357;SDS011;167;47.558;7.602;2024-03-07T01:29:18;4.73;;;4.33;;
357;SDS011;167;47.558;7.602;2024-03-07T01:31:44;4.17;;;3.83;;
357;SDS011;167;47.558;7.602;2024-03-07T01:34:10;4.27;;;3.97;;
357;SDS011;167;47.558;7.602;2024-03-07T01:36:36;4.97;;;4.67;;
357;SDS011;167;47.558;7.602;2024-03-07T01:39:02;3.97;;;3.67;;
357;SDS011;167;47.558;7.602;2024-03-07T01:41:28;5.07;;;3.90;;
357;SDS011;167;47.558;7.602;2024-03-07T01:43:54;4.03;;;3.77;;
357;SDS011;167;47.558;7.602;2024-03-07T01:46:20;5.23;;;4.80;;
357;SDS011;167;47.558;7.602;2024-03-07T01:48:46;7.53;;;5.23;;
357;SDS011;167;47.558;7.602;2024-03-07T01:51:13;5.80;;;5.30;;
357;SDS011;167;47.558;7.602;2024-03-07T01:53:39;5.27;;;4.87;;
357;SDS011;167;47.558;7.602;2024-03-07T01:56:05;5.67;;;5.27;;
357;SDS011;167;47.558;7.602;2024-03-07T01:58:31;6.20;;;5.60;;
357;SDS011;167;47.558;7.602;2024-03-07T02:00:58;5.93;;;5.50;;
357;SDS011;167;47.558;7.602;2024-03-07T02:03:24;5.20;;;4.80;;
357;SDS011;167;47.558;7.602;2024-03-07T02:05:51;5.60;;;5.20;;
357;SDS011;167;47.558;7.602;2024-03-07T02:08:17;5.07;;;4.67;;
357;SDS011;167;47.558;7.602;2024-03-07T02:10:44;4.90;;;4.60;;
357;SDS011;167;47.558;7.602;2024-03-07T02:13:11;5.60;;;5.10;;
357;SDS011;167;47.558;7.602;2024-03-07T02:15:37;6.43;;;5.97;;
357;SDS011;167;47.558;7.602;2024-03-07T02:18:03;6.20;;;5.60;;
357;SDS011;167;47.558;7.602;2024-03-07T02:20:29;5.70;;;5.20;;
357;SDS011;167;47.558;7.602;2024-03-07T02:22:55;7.57;;;6.87;;
357;SDS011;167;47.558;7.602;2024-03-07T02:25:21;6.83;;;6.33;;
357;SDS011;167;47.558;7.602;2024-03-07T02:27:47;6.40;;;5.90;;
357;SDS011;167;47.558;7.602;2024-03-07T02:30:13;7.10;;;6.50;;
357;SDS011;167;47.558;7.602;2024-03-07T02:32:39;7.23;;;6.47;;
357;SDS011;167;47.558;7.602;2024-03-07T02:35:05;7.50;;;6.83;;
357;SDS011;167;47.558;7.602;2024-03-07T02:37:33;6.80;;;6.20;;
357;SDS011;167;47.558;7.602;2024-03-07T02:39:59;7.43;;;6.70;;
357;SDS011;167;47.558;7.602;2024-03-07T02:42:26;8.87;;;8.10;;
357;SDS011;167;47.558;7.602;2024-03-07T02:44:52;9.97;;;7.00;;
357;SDS011;167;47.558;7.602;2024-03-07T02:47:18;7.67;;;7.07;;
357;SDS011;167;47.558;7.602;2024-03-07T02:49:44;7.60;;;6.90;;
357;SDS011;167;47.558;7.602;2024-03-07T02:52:10;8.47;;;7.77;;
357;SDS011;167;47.558;7.602;2024-03-07T02:54:36;7.50;;;7.00;;
357;SDS011;167;47.558;7.602;2024-03-07T02:57:02;7.47;;;6.87;;
357;SDS011;167;47.558;7.602;2024-03-07T02:59:28;8.43;;;7.73;;
357;SDS011;167;47.558;7.602;2024-03-07T03:01:54;8.47;;;7.73;;
357;SDS011;167;47.558;7.602;2024-03-07T03:04:20;8.13;;;7.43;;
357;SDS011;167;47.558;7.602;2024-03-07T03:06:47;9.40;;;8.53;;
357;SDS011;167;47.558;7.602;2024-03-07T03:09:13;8.63;;;7.93;;
357;SDS011;167;47.558;7.602;2024-03-07T03:11:45;9.20;;;8.43;;
357;SDS011;167;47.558;7.602;2024-03-07T03:14:11;8.23;;;7.43;;
357;SDS011;167;47.558;7.602;2024-03-07T03:16:40;8.70;;;7.80;;
357;SDS011;167;47.558;7.602;2024-03-07T03:19:07;8.10;;;7.30;;
357;SDS011;167;47.558;7.602;2024-03-07T03:21:34;8.57;;;7.73;;
357;SDS011;167;47.558;7.602;2024-03-07T03:24:00;8.77;;;8.00;;
357;SDS011;167;47.558;7.602;2024-03-07T03:26:27;9.47;;;8.57;;
357;SDS011;167;47.558;7.602;2024-03-07T03:28:53;7.43;;;6.57;;
357;SDS011;167;47.558;7.602;2024-03-07T03:31:19;8.03;;;7.33;;
357;SDS011;167;47.558;7.602;2024-03-07T03:33:45;7.50;;;6.90;;
357;SDS011;167;47.558;7.602;2024-03-07T03:36:11;7.17;;;6.20;;
357;SDS011;167;47.558;7.602;2024-03-07T03:38:37;8.10;;;7.27;;
357;SDS011;167;47.558;7.602;2024-03-07T03:41:03;8.40;;;7.43;;
357;SDS011;167;47.558;7.602;2024-03-07T03:43:29;8.40;;;7.70;;
357;SDS011;167;47.558;7.602;2024-03-07T03:45:57;6.50;;;6.00;;
357;SDS011;167;47.558;7.602;2024-03-07T03:48:23;7.80;;;7.00;;
357;SDS011;167;47.558;7.602;2024-03-07T03:50:49;7.00;;;6.40;;
357;SDS011;167;47.558;7.602;2024-03-07T03:53:15;7.20;;;6.50;;
357;SDS011;167;47.558;7.602;2024-03-07T03:55:41;7.13;;;6.43;;
357;SDS011;167;47.558;7.602;2024-03-07T03:58:07;7.73;;;7.13;;
357;SDS011;167;47.558;7.602;2024-03-07T04:00:34;7.23;;;6.50;;
357;SDS011;167;47.558;7.602;2024-03-07T04:03:00;7.47;;;6.83;;
357;SDS011;167;47.558;7.602;2024-03-07T04:05:26;8.20;;;7.40;;
357;SDS011;167;47.558;7.602;2024-03-07T04:07:52;7.30;;;6.63;;
357;SDS011;167;47.558;7.602;2024-03-07T04:10:18;6.40;;;5.80;;
357;SDS011;167;47.558;7.602;2024-03-07T04:12:44;5.83;;;5.43;;
357;SDS011;167;47.558;7.602;2024-03-07T04:15:11;5.63;;;5.13;;
357;SDS011;167;47.558;7.602;2024-03-07T04:17:38;6.60;;;6.10;;
357;SDS011;167;47.558;7.602;2024-03-07T04:20:05;6.73;;;5.00;;
357;SDS011;167;47.558;7.602;2024-03-07T04:22:34;6.77;;;5.90;;
357;SDS011;167;47.558;7.602;2024-03-07T04:25:01;5.27;;;4.80;;
357;SDS011;167;47.558;7.602;2024-03-07T04:27:27;4.73;;;4.43;;
357;SDS011;167;47.558;7.602;2024-03-07T04:29:53;6.07;;;5.47;;
357;SDS011;167;47.558;7.602;2024-03-07T04:32:20;5.63;;;5.00;;
357;SDS011;167;47.558;7.602;2024-03-07T04:34:46;4.83;;;4.43;;
357;SDS011;167;47.558;7.602;2024-03-07T04:37:13;4.33;;;3.93;;
357;SDS011;167;47.558;7.602;2024-03-07T04:39:40;5.73;;;5.23;;
357;SDS011;167;47.558;7.602;2024-03-07T04:42:06;4.90;;;4.60;;
357;SDS011;167;47.558;7.602;2024-03-07T04:44:33;5.80;;;5.13;;
357;SDS011;167;47.558;7.602;2024-03-07T04:47:00;4.50;;;4.20;;
357;SDS011;167;47.558;7.602;2024-03-07T04:49:27;5.20;;;4.80;;
357;SDS011;167;47.558;7.602;2024-03-07T04:51:54;6.50;;;5.70;;
357;SDS011;167;47.558;7.602;2024-03-07T04:54:21;5.20;;;4.80;;
357;SDS011;167;47.558;7.602;2024-03-07T04:56:47;9.00;;;5.43;;
357;SDS011;167;47.558;7.602;2024-03-07T04:59:14;5.43;;;4.97;;
357;SDS011;167;47.558;7.602;2024-03-07T05:01:40;4.53;;;4.20;;
357;SDS011;167;47.558;7.602;2024-03-07T05:04:06;5.97;;;5.37;;
357;SDS011;167;47.558;7.602;2024-03-07T05:06:32;5.90;;;5.30;;
357;SDS011;167;47.558;7.602;2024-03-07T05:09:04;7.10;;;6.50;;
357;SDS011;167;47.558;7.602;2024-03-07T05:11:32;6.27;;;5.77;;
357;SDS011;167;47.558;7.602;2024-03-07T05:13:58;6.40;;;5.90;;
357;SDS011;167;47.558;7.602;2024-03-07T05:16:24;6.37;;;5.87;;
357;SDS011;167;47.558;7.602;2024-03-07T05:18:52;8.17;;;6.97;;
357;SDS011;167;47.558;7.602;2024-03-07T05:21:18;6.37;;;5.77;;
357;SDS011;167;47.558;7.602;2024-03-07T05:24:04;7.00;;;6.40;;
357;SDS011;167;47.558;7.602;2024-03-07T05:26:30;7.00;;;6.30;;
357;SDS011;167;47.558;7.602;2024-03-07T05:29:02;6.87;;;6.27;;
357;SDS011;167;47.558;7.602;2024-03-07T05:31:31;8.90;;;8.10;;
357;SDS011;167;47.558;7.602;2024-03-07T05:34:00;8.87;;;8.13;;
357;SDS011;167;47.558;7.602;2024-03-07T05:36:33;7.70;;;7.03;;
357;SDS011;167;47.558;7.602;2024-03-07T05:38:59;8.07;;;7.27;;
357;SDS011;167;47.558;7.602;2024-03-07T05:41:27;8.93;;;8.13;;
357;SDS011;167;47.558;7.602;2024-03-07T05:43:54;8.40;;;7.60;;
357;SDS011;167;47.558;7.602;2024-03-07T05:46:21;8.30;;;7.50;;
357;SDS011;167;47.558;7.602;2024-03-07T05:48:47;8.17;;;7.47;;
357;SDS011;167;47.558;7.602;2024-03-07T05:51:16;10.57;;;8.97;;
357;SDS011;167;47.558;7.602;2024-03-07T05:53:42;9.10;;;8.30;;
357;SDS011;167;47.558;7.602;2024-03-07T05:56:08;10.00;;;9.00;;
357;SDS011;167;47.558;7.602;2024-03-07T05:58:34;10.00;;;8.80;;
357;SDS011;167;47.558;7.602;2024-03-07T06:01:00;9.80;;;8.80;;
357;SDS011;167;47.558;7.602;2024-03-07T06:03:28;11.53;;;10.43;;
357;SDS011;167;47.558;7.602;2024-03-07T06:05:54;12.67;;;11.37;;
357;SDS011;167;47.558;7.602;2024-03-07T06:08:20;15.23;;;13.67;;
357;SDS011;167;47.558;7.602;2024-03-07T06:10:47;13.50;;;12.23;;
357;SDS011;167;47.558;7.602;2024-03-07T06:13:14;14.07;;;12.77;;
357;SDS011;167;47.558;7.602;2024-03-07T06:15:43;14.50;;;13.10;;
357;SDS011;167;47.558;7.602;2024-03-07T06:18:10;13.83;;;12.50;;
357;SDS011;167;47.558;7.602;2024-03-07T06:20:38;14.33;;;12.57;;
357;SDS011;167;47.558;7.602;2024-03-07T06:23:05;13.80;;;12.40;;
357;SDS011;167;47.558;7.602;2024-03-07T06:25:32;13.93;;;12.50;;
357;SDS011;167;47.558;7.602;2024-03-07T06:28:01;13.97;;;12.40;;
357;SDS011;167;47.558;7.602;2024-03-07T06:30:36;13.33;;;11.67;;
357;SDS011;167;47.558;7.602;2024-03-07T06:33:03;13.20;;;11.90;;
357;SDS011;167;47.558;7.602;2024-03-07T06:35:29;13.57;;;12.17;;
357;SDS011;167;47.558;7.602;2024-03-07T06:37:55;12.03;;;10.80;;
357;SDS011;167;47.558;7.602;2024-03-07T06:40:21;12.37;;;11.17;;
357;SDS011;167;47.558;7.602;2024-03-07T06:42:47;11.13;;;10.03;;
357;SDS011;167;47.558;7.602;2024-03-07T06:45:14;13.43;;;10.23;;
357;SDS011;167;47.558;7.602;2024-03-07T06:47:40;11.63;;;10.53;;
357;SDS011;167;47.558;7.602;2024-03-07T06:50:06;10.60;;;9.50;;
357;SDS011;167;47.558;7.602;2024-03-07T06:52:34;11.67;;;10.40;;
357;SDS011;167;47.558;7.602;2024-03-07T06:55:03;13.67;;;10.97;;
357;SDS011;167;47.558;7.602;2024-03-07T06:57:30;10.53;;;9.30;;
357;SDS011;167;47.558;7.602;2024-03-07T06:59:56;13.40;;;11.30;;
357;SDS011;167;47.558;7.602;2024-03-07T07:02:22;11.17;;;10.17;;
357;SDS011;167;47.558;7.602;2024-03-07T07:04:49;11.57;;;9.77;;
357;SDS011;167;47.558;7.602;2024-03-07T07:07:15;12.80;;;9.93;;
357;SDS011;167;47.558;7.602;2024-03-07T07:09:41;10.20;;;9.20;;
357;SDS011;167;47.558;7.602;2024-03-07T07:12:07;10.67;;;9.67;;
357;SDS011;167;47.558;7.602;2024-03-07T07:14:33;12.60;;;11.30;;
357;SDS011;167;47.558;7.602;2024-03-07T07:17:01;11.80;;;10.60;;
357;SDS011;167;47.558;7.602;2024-03-07T07:19:27;11.23;;;10.03;;
357;SDS011;167;47.558;7.602;2024-03-07T07:21:53;12.17;;;10.97;;
357;SDS011;167;47.558;7.602;2024-03-07T07:24:19;11.47;;;10.03;;
357;SDS011;167;47.558;7.602;2024-03-07T07:26:49;10.80;;;9.77;;
357;SDS011;167;47.558;7.602;2024-03-07T07:29:18;10.53;;;9.43;;
357;SDS011;167;47.558;7.602;2024-03-07T07:31:44;10.90;;;9.80;;
357;SDS011;167;47.558;7.602;2024-03-07T07:34:11;13.20;;;9.57;;
357;SDS011;167;47.558;7.602;2024-03-07T07:36:37;9.70;;;8.80;;
357;SDS011;167;47.558;7.602;2024-03-07T07:39:03;14.40;;;10.60;;
357;SDS011;167;47.558;7.602;2024-03-07T07:41:29;10.40;;;9.40;;
357;SDS011;167;47.558;7.602;2024-03-07T07:43:56;11.10;;;9.90;;
357;SDS011;167;47.558;7.602;2024-03-07T07:46:22;11.83;;;9.63;;
357;SDS011;167;47.558;7.602;2024-03-07T07:48:48;11.27;;;10.17;;
357;SDS011;167;47.558;7.602;2024-03-07T07:51:14;10.50;;;9.03;;
357;SDS011;167;47.558;7.602;2024-03-07T07:53:40;11.07;;;9.97;;
357;SDS011;167;47.558;7.602;2024-03-07T07:56:07;13.10;;;10.93;;
357;SDS011;167;47.558;7.602;2024-03-07T07:58:33;11.07;;;10.03;;
357;SDS011;167;47.558;7.602;2024-03-07T08:00:59;11.67;;;10.50;;
357;SDS011;167;47.558;7.602;2024-03-07T08:03:25;10.50;;;9.23;;
357;SDS011;167;47.558;7.602;2024-03-07T08:05:51;11.03;;;8.70;;
357;SDS011;167;47.558;7.602;2024-03-07T08:08:19;11.67;;;10.50;;
357;SDS011;167;47.558;7.602;2024-03-07T08:10:46;11.43;;;10.23;;
357;SDS011;167;47.558;7.602;2024-03-07T08:13:13;12.77;;;11.33;;
357;SDS011;167;47.558;7.602;2024-03-07T08:15:39;11.17;;;9.97;;
357;SDS011;167;47.558;7.602;2024-03-07T08:18:06;10.77;;;9.67;;
357;SDS011;167;47.558;7.602;2024-03-07T08:20:33;12.70;;;11.17;;
357;SDS011;167;47.558;7.602;2024-03-07T08:23:00;10.37;;;9.30;;
357;SDS011;167;47.558;7.602;2024-03-07T08:25:27;17.93;;;12.10;;
357;SDS011;167;47.558;7.602;2024-03-07T08:27:54;11.87;;;10.00;;
357;SDS011;167;47.558;7.602;2024-03-07T08:30:21;11.67;;;9.50;;
357;SDS011;167;47.558;7.602;2024-03-07T08:35:13;11.20;;;9.80;;
357;SDS011;167;47.558;7.602;2024-03-07T08:37:47;12.30;;;10.27;;
357;SDS011;167;47.558;7.602;2024-03-07T08:40:20;13.03;;;10.70;;
357;SDS011;167;47.558;7.602;2024-03-07T08:42:47;13.33;;;11.53;;
357;SDS011;167;47.558;7.602;2024-03-07T08:45:13;12.50;;;11.20;;
357;SDS011;167;47.558;7.602;2024-03-07T08:47:44;10.60;;;9.40;;
357;SDS011;167;47.558;7.602;2024-03-07T08:50:10;13.37;;;11.33;;
357;SDS011;167;47.558;7.602;2024-03-07T08:52:38;10.40;;;9.40;;
357;SDS011;167;47.558;7.602;2024-03-07T08:55:08;12.47;;;10.03;;
357;SDS011;167;47.558;7.602;2024-03-07T08:57:34;10.50;;;7.70;;
357;SDS011;167;47.558;7.602;2024-03-07T09:00:01;12.50;;;9.20;;
357;SDS011;167;47.558;7.602;2024-03-07T09:02:33;9.80;;;8.80;;
357;SDS011;167;47.558;7.602;2024-03-07T09:04:59;9.40;;;8.60;;
357;SDS011;167;47.558;7.602;2024-03-07T09:07:25;10.93;;;9.70;;
357;SDS011;167;47.558;7.602;2024-03-07T09:09:51;14.30;;;10.20;;
357;SDS011;167;47.558;7.602;2024-03-07T09:12:17;10.57;;;9.53;;
357;SDS011;167;47.558;7.602;2024-03-07T09:14:45;11.67;;;10.03;;
357;SDS011;167;47.558;7.602;2024-03-07T09:17:11;11.20;;;9.13;;
357;SDS011;167;47.558;7.602;2024-03-07T09:19:37;10.70;;;9.70;;
357;SDS011;167;47.558;7.602;2024-03-07T09:22:03;10.50;;;9.40;;
357;SDS011;167;47.558;7.602;2024-03-07T09:24:30;10.97;;;9.90;;
357;SDS011;167;47.558;7.602;2024-03-07T09:26:56;10.73;;;9.50;;
357;SDS011;167;47.558;7.602;2024-03-07T09:29:22;11.87;;;10.27;;
357;SDS011;167;47.558;7.602;2024-03-07T09:31:49;11.33;;;9.87;;
357;SDS011;167;47.558;7.602;2024-03-07T09:34:17;9.83;;;8.83;;
357;SDS011;167;47.558;7.602;2024-03-07T09:36:43;8.33;;;7.53;;
357;SDS011;167;47.558;7.602;2024-03-07T09:39:11;11.73;;;10.47;;
357;SDS011;167;47.558;7.602;2024-03-07T09:41:40;10.53;;;9.57;;
357;SDS011;167;47.558;7.602;2024-03-07T09:44:07;10.03;;;8.97;;
357;SDS011;167;47.558;7.602;2024-03-07T09:46:36;10.50;;;9.40;;
357;SDS011;167;47.558;7.602;2024-03-07T09:49:02;10.20;;;8.83;;
357;SDS011;167;47.558;7.602;2024-03-07T09:51:30;9.17;;;8.20;;
357;SDS011;167;47.558;7.602;2024-03-07T09:53:57;10.00;;;8.80;;
357;SDS011;167;47.558;7.602;2024-03-07T09:56:24;9.40;;;8.17;;
357;SDS011;167;47.558;7.602;2024-03-07T09:58:51;9.13;;;8.23;;
357;SDS011;167;47.558;7.602;2024-03-07T10:01:18;9.67;;;8.77;;
357;SDS011;167;47.558;7.602;2024-03-07T10:03:45;8.80;;;7.90;;
357;SDS011;167;47.558;7.602;2024-03-07T10:06:12;8.23;;;7.53;;
357;SDS011;167;47.558;7.602;2024-03-07T10:08:40;7.87;;;7.10;;
357;SDS011;167;47.558;7.602;2024-03-07T10:11:07;11.77;;;7.97;;
357;SDS011;167;47.558;7.602;2024-03-07T10:13:34;9.50;;;8.50;;
357;SDS011;167;47.558;7.602;2024-03-07T10:16:00;8.80;;;7.97;;
357;SDS011;167;47.558;7.602;2024-03-07T10:18:26;8.87;;;7.97;;
357;SDS011;167;47.558;7.602;2024-03-07T10:20:55;9.50;;;8.60;;
357;SDS011;167;47.558;7.602;2024-03-07T10:23:22;7.93;;;7.20;;
357;SDS011;167;47.558;7.602;2024-03-07T10:25:48;8.60;;;7.80;;
357;SDS011;167;47.558;7.602;2024-03-07T10:28:18;11.07;;;9.70;;
357;SDS011;167;47.558;7.602;2024-03-07T10:30:46;8.90;;;8.00;;
357;SDS011;167;47.558;7.602;2024-03-07T10:33:15;9.90;;;8.07;;
357;SDS011;167;47.558;7.602;2024-03-07T10:35:41;9.70;;;8.70;;
357;SDS011;167;47.558;7.602;2024-03-07T10:38:07;9.47;;;7.67;;
357;SDS011;167;47.558;7.602;2024-03-07T10:40:36;8.73;;;7.67;;
357;SDS011;167;47.558;7.602;2024-03-07T10:43:07;10.80;;;8.77;;
357;SDS011;167;47.558;7.602;2024-03-07T10:45:35;13.13;;;8.17;;
357;SDS011;167;47.558;7.602;2024-03-07T10:48:03;9.07;;;8.17;;
357;SDS011;167;47.558;7.602;2024-03-07T10:50:38;7.73;;;7.00;;
357;SDS011;167;47.558;7.602;2024-03-07T10:56:05;11.53;;;9.30;;
357;SDS011;167;47.558;7.602;2024-03-07T10:58:36;8.03;;;7.20;;
357;SDS011;167;47.558;7.602;2024-03-07T11:01:04;8.90;;;8.03;;
357;SDS011;167;47.558;7.602;2024-03-07T11:03:34;8.47;;;7.67;;
357;SDS011;167;47.558;7.602;2024-03-07T11:06:01;9.73;;;8.93;;
357;SDS011;167;47.558;7.602;2024-03-07T11:08:32;10.30;;;9.30;;
357;SDS011;167;47.558;7.602;2024-03-07T11:10:59;10.13;;;8.37;;
357;SDS011;167;47.558;7.602;2024-03-07T11:13:25;10.80;;;8.80;;
357;SDS011;167;47.558;7.602;2024-03-07T11:15:51;8.90;;;8.03;;
357;SDS011;167;47.558;7.602;2024-03-07T11:18:22;10.20;;;9.23;;
357;SDS011;167;47.558;7.602;2024-03-07T11:20:49;8.90;;;7.67;;
357;SDS011;167;47.558;7.602;2024-03-07T11:26:01;9.03;;;8.13;;
357;SDS011;167;47.558;7.602;2024-03-07T11:28:32;10.33;;;9.07;;
357;SDS011;167;47.558;7.602;2024-03-07T11:36:46;8.20;;;7.40;;
357;SDS011;167;47.558;7.602;2024-03-07T11:42:01;8.10;;;7.40;;
357;SDS011;167;47.558;7.602;2024-03-07T11:44:27;9.23;;;7.70;;
357;SDS011;167;47.558;7.602;2024-03-07T11:46:53;9.53;;;8.63;;
357;SDS011;167;47.558;7.602;2024-03-07T11:49:20;9.03;;;8.13;;
357;SDS011;167;47.558;7.602;2024-03-07T11:51:46;9.70;;;8.73;;
357;SDS011;167;47.558;7.602;2024-03-07T11:54:13;10.77;;;8.60;;
357;SDS011;167;47.558;7.602;2024-03-07T11:56:39;9.27;;;8.37;;
357;SDS011;167;47.558;7.602;2024-03-07T11:59:05;10.53;;;8.97;;
357;SDS011;167;47.558;7.602;2024-03-07T12:01:32;11.00;;;8.60;;
357;SDS011;167;47.558;7.602;2024-03-07T12:03:58;9.23;;;8.17;;
357;SDS011;167;47.558;7.602;2024-03-07T12:06:26;8.67;;;7.57;;
357;SDS011;167;47.558;7.602;2024-03-07T12:08:52;11.60;;;8.10;;
357;SDS011;167;47.558;7.602;2024-03-07T12:11:18;10.23;;;8.97;;
357;SDS011;167;47.558;7.602;2024-03-07T12:13:44;9.87;;;8.93;;
357;SDS011;167;47.558;7.602;2024-03-07T12:16:10;9.00;;;8.10;;
357;SDS011;167;47.558;7.602;2024-03-07T12:18:36;12.90;;;9.40;;
357;SDS011;167;47.558;7.602;2024-03-07T12:21:02;9.03;;;8.23;;
357;SDS011;167;47.558;7.602;2024-03-07T12:23:31;8.57;;;7.87;;
357;SDS011;167;47.558;7.602;2024-03-07T12:26:07;8.97;;;8.20;;
357;SDS011;167;47.558;7.602;2024-03-07T12:28:35;9.63;;;8.73;;
357;SDS011;167;47.558;7.602;2024-03-07T12:31:03;8.27;;;7.47;;
357;SDS011;167;47.558;7.602;2024-03-07T12:33:31;9.03;;;8.23;;
357;SDS011;167;47.558;7.602;2024-03-07T12:36:03;7.43;;;6.87;;
357;SDS011;167;47.558;7.602;2024-03-07T12:38:32;8.83;;;8.10;;
357;SDS011;167;47.558;7.602;2024-03-07T12:41:10;10.87;;;7.67;;
357;SDS011;167;47.558;7.602;2024-03-07T12:43:40;8.63;;;7.83;;
357;SDS011;167;47.558;7.602;2024-03-07T12:46:11;8.10;;;7.30;;
357;SDS011;167;47.558;7.602;2024-03-07T12:48:38;7.17;;;6.57;;
357;SDS011;167;47.558;7.602;2024-03-07T12:51:04;8.20;;;7.20;;
357;SDS011;167;47.558;7.602;2024-03-07T12:53:30;8.00;;;7.30;;
357;SDS011;167;47.558;7.602;2024-03-07T12:55:56;7.67;;;6.83;;
357;SDS011;167;47.558;7.602;2024-03-07T12:58:22;8.27;;;7.53;;
357;SDS011;167;47.558;7.602;2024-03-07T13:00:54;8.33;;;7.70;;
357;SDS011;167;47.558;7.602;2024-03-07T13:03:23;8.10;;;7.30;;
357;SDS011;167;47.558;7.602;2024-03-07T13:05:55;8.43;;;7.63;;
357;SDS011;167;47.558;7.602;2024-03-07T13:08:21;8.13;;;7.43;;
357;SDS011;167;47.558;7.602;2024-03-07T13:10:51;7.40;;;6.67;;
357;SDS011;167;47.558;7.602;2024-03-07T13:13:20;7.23;;;6.53;;
357;SDS011;167;47.558;7.602;2024-03-07T13:15:46;7.90;;;7.20;;
357;SDS011;167;47.558;7.602;2024-03-07T13:18:12;7.00;;;6.30;;
357;SDS011;167;47.558;7.602;2024-03-07T13:20:38;9.90;;;8.03;;
357;SDS011;167;47.558;7.602;2024-03-07T13:23:08;8.23;;;7.43;;
357;SDS011;167;47.558;7.602;2024-03-07T13:25:35;9.33;;;8.37;;
357;SDS011;167;47.558;7.602;2024-03-07T13:28:06;9.73;;;7.40;;
357;SDS011;167;47.558;7.602;2024-03-07T13:30:33;8.53;;;7.73;;
357;SDS011;167;47.558;7.602;2024-03-07T13:33:01;9.47;;;8.47;;
357;SDS011;167;47.558;7.602;2024-03-07T13:35:28;7.97;;;7.17;;
357;SDS011;167;47.558;7.602;2024-03-07T13:37:54;9.70;;;8.60;;
357;SDS011;167;47.558;7.602;2024-03-07T13:40:21;8.57;;;7.77;;
357;SDS011;167;47.558;7.602;2024-03-07T13:45:20;9.30;;;8.50;;
357;SDS011;167;47.558;7.602;2024-03-07T13:47:46;8.90;;;8.20;;
357;SDS011;167;47.558;7.602;2024-03-07T13:50:18;8.20;;;7.40;;
357;SDS011;167;47.558;7.602;2024-03-07T13:52:51;9.43;;;8.53;;
357;SDS011;167;47.558;7.602;2024-03-07T14:01:03;8.60;;;7.80;;
357;SDS011;167;47.558;7.602;2024-03-07T14:06:28;10.10;;;8.80;;
357;SDS011;167;47.558;7.602;2024-03-07T14:24:11;7.90;;;7.10;;
357;SDS011;167;47.558;7.602;2024-03-07T14:32:02;7.07;;;6.37;;
357;SDS011;167;47.558;7.602;2024-03-07T14:39:52;7.70;;;6.90;;
357;SDS011;167;47.558;7.602;2024-03-07T14:42:18;9.40;;;7.37;;
357;SDS011;167;47.558;7.602;2024-03-07T14:44:45;7.03;;;6.43;;
357;SDS011;167;47.558;7.602;2024-03-07T14:47:13;9.23;;;7.17;;
357;SDS011;167;47.558;7.602;2024-03-07T14:49:41;11.47;;;8.37;;
357;SDS011;167;47.558;7.602;2024-03-07T14:52:07;8.27;;;6.97;;
357;SDS011;167;47.558;7.602;2024-03-07T14:54:39;7.40;;;6.73;;
357;SDS011;167;47.558;7.602;2024-03-07T14:57:05;7.13;;;6.53;;
357;SDS011;167;47.558;7.602;2024-03-07T14:59:32;7.00;;;6.30;;
357;SDS011;167;47.558;7.602;2024-03-07T15:01:58;7.97;;;6.90;;
357;SDS011;167;47.558;7.602;2024-03-07T15:04:26;7.27;;;6.50;;
357;SDS011;167;47.558;7.602;2024-03-07T15:06:53;9.17;;;6.97;;
357;SDS011;167;47.558;7.602;2024-03-07T15:09:22;7.80;;;7.10;;
357;SDS011;167;47.558;7.602;2024-03-07T15:11:47;7.37;;;5.87;;
357;SDS011;167;47.558;7.602;2024-03-07T15:14:14;7.50;;;6.77;;
357;SDS011;167;47.558;7.602;2024-03-07T15:16:40;6.70;;;6.13;;
357;SDS011;167;47.558;7.602;2024-03-07T15:19:07;8.13;;;7.33;;
357;SDS011;167;47.558;7.602;2024-03-07T15:21:37;9.00;;;7.27;;
357;SDS011;167;47.558;7.602;2024-03-07T15:24:03;8.90;;;7.90;;
357;SDS011;167;47.558;7.602;2024-03-07T15:26:30;7.33;;;6.70;;
357;SDS011;167;47.558;7.602;2024-03-07T15:28:56;7.17;;;6.47;;
357;SDS011;167;47.558;7.602;2024-03-07T15:31:23;8.33;;;7.53;;
357;SDS011;167;47.558;7.602;2024-03-07T15:33:49;8.60;;;7.83;;
357;SDS011;167;47.558;7.602;2024-03-07T15:36:19;7.57;;;6.67;;
357;SDS011;167;47.558;7.602;2024-03-07T15:38:46;10.23;;;8.20;;
357;SDS011;167;47.558;7.602;2024-03-07T15:41:13;10.33;;;8.37;;
357;SDS011;167;47.558;7.602;2024-03-07T15:43:39;10.30;;;8.67;;
357;SDS011;167;47.558;7.602;2024-03-07T15:46:08;9.30;;;8.40;;
357;SDS011;167;47.558;7.602;2024-03-07T15:48:36;9.00;;;8.10;;
357;SDS011;167;47.558;7.602;2024-03-07T15:51:03;11.37;;;9.00;;
357;SDS011;167;47.558;7.602;2024-03-07T15:53:30;9.87;;;7.90;;
357;SDS011;167;47.558;7.602;2024-03-07T15:55:59;10.47;;;9.33;;
357;SDS011;167;47.558;7.602;2024-03-07T15:58:25;9.23;;;8.40;;
357;SDS011;167;47.558;7.602;2024-03-07T16:00:50;10.43;;;8.53;;
357;SDS011;167;47.558;7.602;2024-03-07T16:03:17;9.63;;;8.63;;
357;SDS011;167;47.558;7.602;2024-03-07T16:05:43;12.07;;;8.87;;
357;SDS011;167;47.558;7.602;2024-03-07T16:08:10;10.47;;;9.37;;
357;SDS011;167;47.558;7.602;2024-03-07T16:10:37;8.63;;;7.67;;
357;SDS011;167;47.558;7.602;2024-03-07T16:13:07;9.50;;;7.93;;
357;SDS011;167;47.558;7.602;2024-03-07T16:15:37;11.00;;;9.47;;
357;SDS011;167;47.558;7.602;2024-03-07T16:18:03;9.90;;;8.13;;
357;SDS011;167;47.558;7.602;2024-03-07T16:20:31;11.87;;;9.73;;
357;SDS011;167;47.558;7.602;2024-03-07T16:22:58;11.73;;;8.93;;
357;SDS011;167;47.558;7.602;2024-03-07T16:25:24;10.87;;;9.77;;
357;SDS011;167;47.558;7.602;2024-03-07T16:27:51;12.53;;;9.30;;
357;SDS011;167;47.558;7.602;2024-03-07T16:30:27;9.07;;;8.17;;